createdAt,value
2023-04-06T00:00:36.169Z,11.13
2023-04-06T00:03:03.337Z,11.70
2023-04-06T00:05:31.740Z,10.73
2023-04-06T00:07:59.335Z,10.95
2023-04-06T00:10:27.370Z,11.02
2023-04-06T00:12:58.374Z,11.40
2023-04-06T00:15:25.390Z,11.90
2023-04-06T00:17:52.550Z,11.60
2023-04-06T00:20:19.972Z,11.20
2023-04-06T00:22:46.820Z,12.45
2023-04-06T00:25:13.536Z,10.70
2023-04-06T00:27:40.458Z,10.73
2023-04-06T00:30:07.942Z,10.68
2023-04-06T00:32:36.552Z,10.10
2023-04-06T00:35:04.440Z,10.77
2023-04-06T00:37:31.224Z,11.05
2023-04-06T00:39:58.194Z,10.63
2023-04-06T00:42:28.590Z,11.15
2023-04-06T00:45:00.271Z,11.50
2023-04-06T00:47:28.187Z,13.63
2023-04-06T00:49:56.594Z,11.32
2023-04-06T00:52:24.782Z,11.80
2023-04-06T00:54:53.995Z,12.02
2023-04-06T00:57:22.636Z,11.30
2023-04-06T00:59:55.244Z,16.42
2023-04-06T01:02:22.341Z,12.13
2023-04-06T01:04:53.974Z,11.30
2023-04-06T01:07:31.786Z,11.50
2023-04-06T01:10:07.477Z,12.30
2023-04-06T01:12:40.053Z,11.40
2023-04-06T01:15:18.166Z,12.02
2023-04-06T01:17:51.297Z,10.80
2023-04-06T01:20:18.926Z,11.27
2023-04-06T01:22:52.247Z,11.68
2023-04-06T01:25:20.902Z,12.30
2023-04-06T01:28:07.922Z,11.43
2023-04-06T01:33:39.092Z,12.00
2023-04-06T01:36:09.425Z,10.45
2023-04-06T01:38:38.915Z,11.38
2023-04-06T01:41:06.266Z,12.52
2023-04-06T01:43:46.238Z,11.82
2023-04-06T01:46:14.011Z,12.38
2023-04-06T01:48:44.757Z,12.77
2023-04-06T01:51:30.093Z,12.55
2023-04-06T01:54:00.438Z,12.68
2023-04-06T01:56:47.583Z,12.80
2023-04-06T01:59:30.210Z,12.27
2023-04-06T02:01:58.321Z,13.10
2023-04-06T02:04:27.154Z,13.07
2023-04-06T02:07:04.232Z,13.75
2023-04-06T02:09:31.160Z,13.38
2023-04-06T02:11:58.204Z,11.98
2023-04-06T02:14:27.208Z,14.10
2023-04-06T02:16:57.774Z,13.00
2023-04-06T02:19:24.854Z,12.73
2023-04-06T02:21:51.814Z,13.45
2023-04-06T02:24:18.722Z,13.45
2023-04-06T02:26:45.524Z,13.52
2023-04-06T02:29:12.369Z,15.38
2023-04-06T02:31:39.202Z,12.70
2023-04-06T02:34:08.217Z,12.63
2023-04-06T02:36:35.507Z,14.00
2023-04-06T02:39:02.403Z,12.98
2023-04-06T02:41:29.810Z,13.07
2023-04-06T02:44:16.956Z,13.07
2023-04-06T02:46:58.929Z,13.25
2023-04-06T02:49:31.080Z,12.88
2023-04-06T02:52:02.278Z,12.80
2023-04-06T02:54:33.332Z,13.10
2023-04-06T02:57:01.591Z,12.10
2023-04-06T02:59:37.488Z,12.45
2023-04-06T03:02:16.336Z,13.55
2023-04-06T03:04:44.330Z,13.65
2023-04-06T03:07:21.057Z,12.38
2023-04-06T03:09:50.845Z,12.05
2023-04-06T03:12:18.808Z,12.95
2023-04-06T03:15:18.313Z,12.45
2023-04-06T03:17:50.957Z,13.30
2023-04-06T03:20:31.535Z,11.13
2023-04-06T03:22:58.688Z,15.68
2023-04-06T03:25:31.172Z,12.55
2023-04-06T03:28:02.200Z,12.07
2023-04-06T03:30:30.504Z,11.57
2023-04-06T03:32:58.425Z,16.08
2023-04-06T03:35:28.399Z,12.35
2023-04-06T03:37:59.819Z,11.82
2023-04-06T03:40:27.702Z,12.15
2023-04-06T03:42:54.506Z,11.38
2023-04-06T03:45:21.503Z,12.50
2023-04-06T03:47:50.840Z,11.85
2023-04-06T03:50:19.049Z,11.48
2023-04-06T03:52:46.085Z,11.18
2023-04-06T03:55:13.027Z,11.60
2023-04-06T03:57:39.912Z,12.30
2023-04-06T04:00:07.516Z,11.32
2023-04-06T04:02:39.613Z,13.95
2023-04-06T04:05:07.183Z,12.18
2023-04-06T04:07:34.020Z,11.40
2023-04-06T04:10:00.873Z,11.73
2023-04-06T04:12:27.970Z,12.15
2023-04-06T04:14:57.430Z,11.48
2023-04-06T04:17:26.253Z,12.60
2023-04-06T04:19:53.132Z,11.98
2023-04-06T04:22:23.590Z,11.68
2023-04-06T04:24:50.715Z,11.27
2023-04-06T04:27:26.698Z,10.98
2023-04-06T04:29:53.692Z,10.80
2023-04-06T04:32:31.953Z,11.60
2023-04-06T04:35:04.654Z,14.27
2023-04-06T04:37:39.015Z,11.57
2023-04-06T04:40:06.785Z,11.50
2023-04-06T04:42:43.963Z,11.80
2023-04-06T04:45:18.724Z,11.18
2023-04-06T04:47:46.769Z,12.07
2023-04-06T04:50:16.320Z,10.60
2023-04-06T04:52:47.609Z,11.43
2023-04-06T04:55:27.242Z,11.73
2023-04-06T04:57:57.937Z,10.68
2023-04-06T05:00:45.660Z,10.48
2023-04-06T05:03:20.025Z,11.65
2023-04-06T05:05:55.938Z,12.07
2023-04-06T05:08:26.074Z,16.73
2023-04-06T05:10:52.980Z,13.15
2023-04-06T05:13:26.216Z,13.60
2023-04-06T05:16:00.689Z,12.90
2023-04-06T05:18:31.188Z,11.85
2023-04-06T05:20:59.614Z,10.80
2023-04-06T05:23:41.446Z,10.20
2023-04-06T05:26:11.533Z,9.88
2023-04-06T05:28:38.584Z,11.23
2023-04-06T05:31:07.860Z,10.70
2023-04-06T05:33:48.024Z,10.55
2023-04-06T05:36:19.308Z,10.70
2023-04-06T05:38:48.123Z,14.30
2023-04-06T05:41:34.462Z,9.55
2023-04-06T05:44:01.874Z,10.38
2023-04-06T05:46:30.428Z,10.55
2023-04-06T05:48:59.777Z,9.27
2023-04-06T05:51:30.088Z,11.48
2023-04-06T05:53:59.096Z,9.52
2023-04-06T05:56:26.609Z,10.18
2023-04-06T05:58:53.835Z,10.10
2023-04-06T06:01:26.757Z,11.00
2023-04-06T06:04:11.850Z,10.70
2023-04-06T06:06:44.356Z,9.98
2023-04-06T06:09:17.232Z,10.32
2023-04-06T06:11:58.243Z,11.23
2023-04-06T06:17:16.306Z,16.38
2023-04-06T06:19:46.470Z,11.57
2023-04-06T06:22:18.294Z,11.40
2023-04-06T06:24:53.895Z,13.43
2023-04-06T06:27:24.519Z,12.23
2023-04-06T06:29:54.872Z,13.15
2023-04-06T06:32:25.891Z,11.85
2023-04-06T06:34:56.815Z,13.88
2023-04-06T06:37:44.029Z,12.55
2023-04-06T06:40:14.411Z,12.70
2023-04-06T06:42:42.540Z,13.82
2023-04-06T06:45:19.372Z,12.50
2023-04-06T06:47:46.529Z,10.73
2023-04-06T06:50:16.500Z,10.48
2023-04-06T06:52:46.277Z,11.98
2023-04-06T06:55:15.723Z,11.00
2023-04-06T06:57:49.212Z,13.48
2023-04-06T07:00:21.798Z,11.23
2023-04-06T07:03:07.971Z,11.85
2023-04-06T07:06:20.074Z,11.52
2023-04-06T07:08:50.241Z,12.38
2023-04-06T07:11:17.366Z,10.73
2023-04-06T07:13:44.726Z,13.32
2023-04-06T07:16:20.626Z,14.07
2023-04-06T07:18:51.265Z,9.77
2023-04-06T07:21:21.938Z,9.95
2023-04-06T07:23:49.353Z,10.18
2023-04-06T07:26:17.900Z,11.70
2023-04-06T07:29:01.162Z,10.13
2023-04-06T07:31:32.817Z,11.43
2023-04-06T07:34:00.201Z,11.13
2023-04-06T07:36:29.827Z,13.23
2023-04-06T07:38:57.008Z,11.85
2023-04-06T07:41:25.098Z,18.08
2023-04-06T07:43:54.571Z,14.32
2023-04-06T07:46:21.504Z,12.55
2023-04-06T07:48:48.554Z,13.10
2023-04-06T07:51:18.728Z,14.15
2023-04-06T07:53:47.905Z,13.13
2023-04-06T07:56:16.307Z,13.80
2023-04-06T07:58:43.438Z,12.30
2023-04-06T08:01:10.693Z,11.82
2023-04-06T08:03:38.592Z,11.18
2023-04-06T08:06:06.335Z,11.10
2023-04-06T08:08:33.420Z,10.82
2023-04-06T08:11:02.033Z,9.73
2023-04-06T08:13:29.672Z,11.25
2023-04-06T08:15:59.154Z,14.15
2023-04-06T08:18:28.497Z,9.93
2023-04-06T08:20:56.880Z,11.55
2023-04-06T08:23:26.171Z,9.50
2023-04-06T08:25:55.325Z,15.98
2023-04-06T08:28:24.648Z,12.35
2023-04-06T08:30:54.256Z,12.20
2023-04-06T08:33:21.115Z,15.55
2023-04-06T08:35:48.091Z,10.50
2023-04-06T08:38:15.097Z,10.10
2023-04-06T08:40:44.562Z,12.45
2023-04-06T08:43:16.723Z,10.63
2023-04-06T08:45:44.324Z,12.07
2023-04-06T08:48:13.156Z,10.73
2023-04-06T08:50:41.369Z,10.27
2023-04-06T08:53:09.281Z,12.65
2023-04-06T08:55:37.071Z,9.43
2023-04-06T08:58:07.809Z,9.40
2023-04-06T09:00:46.568Z,7.22
2023-04-06T09:03:15.034Z,12.55
2023-04-06T09:05:42.076Z,8.23
2023-04-06T09:08:09.571Z,8.07
2023-04-06T09:10:36.773Z,9.57
2023-04-06T09:13:06.008Z,7.82
2023-04-06T09:15:33.007Z,9.63
2023-04-06T09:18:02.696Z,12.57
2023-04-06T09:23:32.592Z,7.30
2023-04-06T09:26:32.273Z,9.20
2023-04-06T09:29:02.415Z,12.23
2023-04-06T09:31:37.365Z,8.27
2023-04-06T09:34:10.693Z,7.63
2023-04-06T09:36:47.240Z,13.45
2023-04-06T09:39:14.260Z,10.00
2023-04-06T09:41:41.577Z,18.17
2023-04-06T09:44:12.142Z,11.75
2023-04-06T09:47:02.889Z,19.48
2023-04-06T09:49:32.213Z,12.38
2023-04-06T09:52:12.094Z,12.55
2023-04-06T09:54:39.687Z,10.75
2023-04-06T09:57:45.025Z,14.32
2023-04-06T10:00:24.171Z,14.02
2023-04-06T10:03:05.775Z,12.00
2023-04-06T10:06:12.256Z,12.52
2023-04-06T10:08:56.147Z,12.93
2023-04-06T10:11:37.674Z,12.23
2023-04-06T10:14:21.412Z,10.40
2023-04-06T10:17:14.531Z,14.07
2023-04-06T10:20:00.274Z,11.88
2023-04-06T10:48:29.767Z,12.50
2023-04-06T10:52:32.210Z,11.90
2023-04-06T10:58:28.499Z,11.23
2023-04-06T11:01:07.330Z,13.48
2023-04-06T11:04:14.259Z,13.18
2023-04-06T11:07:26.352Z,11.85
2023-04-06T11:10:09.307Z,12.20
2023-04-06T11:12:59.921Z,13.88
2023-04-06T11:15:39.672Z,13.38
2023-04-06T11:18:06.953Z,13.90
2023-04-06T11:20:58.664Z,13.20
2023-04-06T11:23:27.862Z,12.57
2023-04-06T11:26:11.362Z,12.80
2023-04-06T11:34:12.448Z,15.73
2023-04-06T11:36:46.401Z,13.35
2023-04-06T11:39:24.662Z,13.65
2023-04-06T11:42:08.502Z,14.95
2023-04-06T11:44:53.960Z,14.67
2023-04-06T11:47:24.554Z,15.48
2023-04-06T11:49:52.723Z,15.43
2023-04-06T11:52:51.048Z,17.85
2023-04-06T11:55:24.006Z,15.27
2023-04-06T11:58:03.487Z,16.20
2023-04-06T12:00:35.981Z,14.50
2023-04-06T12:03:08.238Z,16.17
2023-04-06T12:06:05.664Z,17.83
2023-04-06T12:08:47.410Z,17.50
2023-04-06T12:14:53.593Z,20.10
2023-04-06T12:17:21.879Z,18.85
2023-04-06T12:20:09.244Z,23.60
2023-04-06T12:22:44.872Z,20.27
2023-04-06T12:25:40.926Z,21.00
2023-04-06T12:30:01.285Z,18.10
2023-04-06T12:36:25.021Z,15.45
2023-04-06T12:39:21.719Z,16.55
2023-04-06T12:42:58.334Z,15.38
2023-04-06T12:45:49.231Z,14.20
2023-04-06T12:55:45.467Z,11.27
2023-04-06T12:58:33.802Z,12.23
2023-04-06T13:01:08.915Z,10.63
2023-04-06T13:03:38.564Z,10.82
2023-04-06T13:06:15.970Z,11.05
2023-04-06T13:08:52.574Z,14.27
2023-04-06T13:14:01.375Z,10.70
2023-04-06T13:16:30.880Z,9.38
2023-04-06T13:19:01.384Z,9.02
2023-04-06T13:21:34.051Z,10.07
2023-04-06T13:24:01.150Z,10.80
2023-04-06T13:26:31.194Z,11.40
2023-04-06T13:28:58.256Z,12.00
2023-04-06T13:31:26.760Z,9.75
2023-04-06T13:33:53.837Z,10.15
2023-04-06T13:36:36.376Z,11.38
2023-04-06T13:39:03.380Z,11.77
2023-04-06T13:41:39.137Z,14.15
2023-04-06T13:45:43.611Z,11.13
2023-04-06T13:47:58.470Z,10.57
2023-04-06T13:54:24.585Z,10.50
2023-04-06T13:57:15.185Z,15.93
2023-04-06T13:59:47.638Z,11.27
2023-04-06T14:02:41.729Z,9.57
2023-04-06T14:06:20.423Z,12.73
2023-04-06T14:11:23.907Z,19.77
2023-04-06T14:14:34.372Z,12.00
2023-04-06T14:17:08.269Z,14.55
2023-04-06T14:26:46.902Z,12.65
2023-04-06T14:33:01.307Z,13.98
2023-04-06T14:36:39.895Z,16.58
2023-04-06T14:39:38.609Z,14.35
2023-04-06T14:42:09.068Z,15.82
2023-04-06T14:52:07.549Z,15.02
2023-04-06T14:54:47.423Z,15.32
2023-04-06T14:57:16.720Z,17.33
2023-04-06T14:59:43.524Z,16.20
2023-04-06T15:02:35.238Z,14.55
2023-04-06T15:05:37.432Z,14.40
2023-04-06T15:08:18.280Z,13.98
2023-04-06T15:10:45.357Z,17.88
2023-04-06T15:13:12.192Z,15.60
2023-04-06T15:15:39.160Z,13.02
2023-04-06T15:18:09.285Z,15.50
2023-04-06T15:20:36.858Z,13.13
2023-04-06T15:30:10.056Z,17.45
2023-04-06T15:33:11.013Z,13.52
2023-04-06T15:35:58.865Z,12.95
2023-04-06T15:38:26.102Z,12.60
2023-04-06T15:40:53.293Z,13.02
2023-04-06T15:43:35.976Z,13.13
2023-04-06T15:48:56.199Z,13.88
2023-04-06T15:51:24.253Z,13.35
2023-04-06T15:58:08.571Z,15.75
2023-04-06T16:00:40.236Z,14.38
2023-04-06T16:03:14.993Z,13.07
2023-04-06T16:05:59.155Z,13.48
2023-04-06T16:08:41.262Z,13.20
2023-04-06T16:12:01.585Z,13.50
2023-04-06T16:14:53.675Z,13.80
2023-04-06T16:17:51.877Z,12.95
2023-04-06T16:20:18.752Z,12.27
2023-04-06T16:22:45.725Z,12.70
2023-04-06T16:25:15.626Z,21.33
2023-04-06T16:27:52.978Z,13.10
2023-04-06T16:30:22.998Z,15.60
2023-04-06T16:35:53.032Z,12.73
2023-04-06T16:38:36.418Z,10.98
2023-04-06T16:41:33.553Z,11.82
2023-04-06T16:44:00.865Z,10.23
2023-04-06T16:46:43.083Z,12.98
2023-04-06T16:49:25.703Z,11.45
2023-04-06T16:52:08.387Z,11.80
2023-04-06T16:54:50.906Z,13.32
2023-04-06T16:57:31.859Z,12.63
2023-04-06T17:00:29.219Z,13.23
2023-04-06T17:03:16.686Z,13.18
2023-04-06T17:05:45.354Z,13.63
2023-04-06T17:08:12.338Z,11.57
2023-04-06T17:13:21.321Z,10.85
2023-04-06T17:15:48.575Z,11.70
2023-04-06T17:18:15.845Z,10.60
2023-04-06T17:20:45.188Z,11.13
2023-04-06T17:23:22.295Z,12.02
2023-04-06T17:26:10.604Z,10.27
2023-04-06T17:33:48.121Z,10.63
2023-04-06T17:37:03.476Z,9.95
2023-04-06T17:39:38.444Z,11.15
2023-04-06T17:42:27.820Z,9.60
2023-04-06T17:45:33.781Z,10.60
2023-04-06T17:48:32.265Z,9.95
2023-04-06T17:51:08.421Z,8.95
2023-04-06T17:54:18.183Z,10.18
2023-04-06T18:04:11.603Z,10.52
2023-04-06T18:14:01.429Z,10.48
2023-04-06T18:20:34.411Z,10.30
2023-04-06T18:39:27.632Z,9.13
2023-04-06T18:42:21.453Z,8.57
2023-04-06T18:48:46.394Z,8.27
2023-04-06T18:51:16.304Z,9.23
2023-04-06T18:53:53.054Z,9.73
2023-04-06T18:57:17.157Z,10.50
2023-04-06T19:00:03.289Z,9.32
2023-04-06T19:02:47.684Z,8.68
2023-04-06T19:05:37.875Z,10.18
2023-04-06T19:08:29.977Z,9.77
2023-04-06T19:11:12.984Z,9.13
2023-04-06T19:13:54.274Z,11.82
2023-04-06T19:16:30.565Z,14.13
2023-04-06T19:19:11.083Z,14.07
2023-04-06T19:21:53.471Z,15.05
2023-04-06T19:24:23.034Z,16.25
2023-04-06T19:26:57.662Z,16.52
2023-04-06T19:29:26.270Z,16.50
2023-04-06T19:31:53.354Z,17.40
2023-04-06T19:34:26.105Z,23.52
2023-04-06T19:36:56.220Z,15.18
2023-04-06T19:40:13.068Z,18.30
2023-04-06T19:42:27.157Z,13.65
2023-04-06T19:45:01.771Z,15.00
2023-04-06T19:47:39.017Z,15.82
2023-04-06T19:50:16.294Z,11.90
2023-04-06T19:52:43.373Z,12.93
2023-04-06T19:58:59.879Z,14.10
2023-04-06T20:01:27.069Z,12.25
2023-04-06T20:03:57.262Z,11.77
2023-04-06T20:06:27.720Z,13.38
2023-04-06T20:08:56.406Z,15.35
2023-04-06T20:11:26.285Z,13.95
2023-04-06T20:13:54.273Z,12.38
2023-04-06T20:16:22.268Z,12.05
2023-04-06T20:18:49.257Z,11.23
2023-04-06T20:21:16.241Z,11.57
2023-04-06T20:23:46.089Z,11.13
2023-04-06T20:26:13.031Z,11.73
2023-04-06T20:28:46.110Z,10.38
2023-04-06T20:31:13.261Z,9.05
2023-04-06T20:33:51.942Z,7.75
2023-04-06T20:36:22.332Z,7.13
2023-04-06T20:38:53.069Z,12.23
2023-04-06T20:41:20.056Z,7.85
2023-04-06T20:43:53.780Z,7.53
2023-04-06T20:46:29.901Z,12.85
2023-04-06T20:48:57.443Z,12.82
2023-04-06T20:51:34.500Z,7.13
2023-04-06T20:54:02.094Z,6.60
2023-04-06T20:56:29.461Z,9.07
2023-04-06T20:59:04.889Z,8.82
2023-04-06T21:01:33.165Z,5.47
2023-04-06T21:04:02.447Z,7.55
2023-04-06T21:06:32.228Z,5.90
2023-04-06T21:09:00.952Z,8.95
2023-04-06T21:11:27.835Z,8.95
2023-04-06T21:13:56.685Z,9.00
2023-04-06T21:16:25.266Z,12.77
2023-04-06T21:18:51.986Z,8.35
2023-04-06T21:21:21.080Z,5.72
2023-04-06T21:23:47.886Z,7.30
2023-04-06T21:26:14.652Z,5.97
2023-04-06T21:28:41.355Z,14.15
2023-04-06T21:31:11.444Z,6.40
2023-04-06T21:33:38.458Z,11.13
2023-04-06T21:36:23.661Z,9.15
2023-04-06T21:38:54.073Z,12.23
2023-04-06T21:41:21.951Z,8.60
2023-04-06T21:43:49.779Z,8.02
2023-04-06T21:46:16.517Z,6.65
2023-04-06T21:48:43.477Z,7.18
2023-04-06T21:51:17.194Z,8.65
2023-04-06T21:53:44.073Z,10.15
2023-04-06T21:56:11.052Z,7.60
2023-04-06T21:58:38.360Z,11.10
2023-04-06T22:01:12.202Z,7.18
2023-04-06T22:03:46.918Z,7.35
2023-04-06T22:09:08.942Z,9.30
2023-04-06T22:11:46.335Z,12.30
2023-04-06T22:14:14.030Z,9.93
2023-04-06T22:16:41.405Z,10.93
2023-04-06T22:19:11.208Z,10.70
2023-04-06T22:21:39.556Z,9.93
2023-04-06T22:24:14.930Z,10.20
2023-04-06T22:26:42.921Z,9.60
2023-04-06T22:29:11.354Z,11.48
2023-04-06T22:31:47.842Z,9.45
2023-04-06T22:34:24.197Z,7.65
2023-04-06T22:36:57.384Z,8.13
2023-04-06T22:39:28.212Z,7.75
2023-04-06T22:42:02.957Z,7.55
2023-04-06T22:44:30.434Z,8.48
2023-04-06T22:46:57.399Z,7.63
2023-04-06T22:49:30.410Z,6.30
2023-04-06T22:52:03.247Z,7.03
2023-04-06T22:54:30.689Z,5.53
2023-04-06T22:56:59.766Z,7.00
2023-04-06T22:59:29.199Z,6.63
2023-04-06T23:01:59.656Z,13.27
2023-04-06T23:04:27.659Z,7.65
2023-04-06T23:07:00.694Z,6.63
2023-04-06T23:09:32.945Z,6.70
2023-04-06T23:12:02.542Z,6.57
2023-04-06T23:14:29.836Z,6.13
2023-04-06T23:16:57.094Z,6.32
2023-04-06T23:19:24.096Z,6.47
2023-04-06T23:21:50.924Z,7.05
2023-04-06T23:24:17.714Z,8.43
2023-04-06T23:26:44.955Z,7.32
2023-04-06T23:29:13.906Z,7.43
2023-04-06T23:31:41.338Z,6.43
2023-04-06T23:34:08.560Z,6.90
2023-04-06T23:36:35.920Z,6.28
2023-04-06T23:39:03.749Z,6.70
2023-04-06T23:41:35.757Z,6.20
2023-04-06T23:44:02.761Z,6.60
2023-04-06T23:46:29.484Z,6.00
2023-04-06T23:48:56.345Z,7.47
2023-04-06T23:51:23.027Z,6.88
2023-04-06T23:53:49.701Z,6.93
2023-04-06T23:56:16.551Z,6.63
2023-04-06T23:58:43.228Z,7.00
